sensor_id;sensor_type;location;lat;lon;timestamp;pressure;altitude;pressure_sealevel;temperature;humidity
9415;BME280;4746;35.664;139.738;2023-12-29T00:01:38;100926.91;;;12.19;41.37
9415;BME280;4746;35.664;139.738;2023-12-29T00:04:06;100918.44;;;12.26;41.23
9415;BME280;4746;35.664;139.738;2023-12-29T00:06:33;100924.50;;;12.34;41.05
9415;BME280;4746;35.664;139.738;2023-12-29T00:09:00;100918.59;;;12.43;40.91
9415;BME280;4746;35.664;139.738;2023-12-29T00:11:29;100923.03;;;12.52;40.71
9415;BME280;4746;35.664;139.738;2023-12-29T00:13:56;100927.34;;;12.58;40.45
9415;BME280;4746;35.664;139.738;2023-12-29T00:16:24;100934.25;;;12.62;40.45
9415;BME280;4746;35.664;139.738;2023-12-29T00:18:51;100916.31;;;12.68;40.45
9415;BME280;4746;35.664;139.738;2023-12-29T00:21:19;100924.06;;;12.71;40.28
9415;BME280;4746;35.664;139.738;2023-12-29T00:23:46;100927.53;;;12.76;39.98
9415;BME280;4746;35.664;139.738;2023-12-29T00:26:18;100931.88;;;12.81;40.14
9415;BME280;4746;35.664;139.738;2023-12-29T00:28:45;100938.00;;;12.91;40.06
9415;BME280;4746;35.664;139.738;2023-12-29T00:31:16;100932.03;;;12.96;40.48
9415;BME280;4746;35.664;139.738;2023-12-29T00:33:44;100925.25;;;13.03;40.13
9415;BME280;4746;35.664;139.738;2023-12-29T00:36:19;100923.59;;;13.12;39.92
9415;BME280;4746;35.664;139.738;2023-12-29T00:38:46;100928.78;;;13.17;39.75
9415;BME280;4746;35.664;139.738;2023-12-29T00:41:14;100936.56;;;13.24;39.62
9415;BME280;4746;35.664;139.738;2023-12-29T00:43:42;100928.03;;;13.29;39.24
9415;BME280;4746;35.664;139.738;2023-12-29T00:46:09;100930.66;;;13.38;39.01
9415;BME280;4746;35.664;139.738;2023-12-29T00:48:37;100930.72;;;13.46;38.94
9415;BME280;4746;35.664;139.738;2023-12-29T00:51:04;100927.34;;;13.54;38.75
9415;BME280;4746;35.664;139.738;2023-12-29T00:53:34;100916.25;;;13.61;38.49
9415;BME280;4746;35.664;139.738;2023-12-29T00:56:01;100921.44;;;13.67;38.71
9415;BME280;4746;35.664;139.738;2023-12-29T00:58:29;100915.44;;;13.74;38.56
9415;BME280;4746;35.664;139.738;2023-12-29T01:00:57;100917.19;;;13.81;38.56
9415;BME280;4746;35.664;139.738;2023-12-29T01:03:24;100925.81;;;13.86;38.33
9415;BME280;4746;35.664;139.738;2023-12-29T01:05:52;100929.25;;;13.91;38.26
9415;BME280;4746;35.664;139.738;2023-12-29T01:08:19;100926.72;;;13.97;38.48
9415;BME280;4746;35.664;139.738;2023-12-29T01:10:47;100919.03;;;14.04;38.56
9415;BME280;4746;35.664;139.738;2023-12-29T01:13:14;100913.06;;;14.11;38.37
9415;BME280;4746;35.664;139.738;2023-12-29T01:15:42;100916.53;;;14.18;38.11
9415;BME280;4746;35.664;139.738;2023-12-29T01:18:12;100913.13;;;14.28;38.21
9415;BME280;4746;35.664;139.738;2023-12-29T01:20:40;100902.84;;;14.41;38.05
9415;BME280;4746;35.664;139.738;2023-12-29T01:23:08;100901.16;;;14.48;37.60
9415;BME280;4746;35.664;139.738;2023-12-29T01:25:35;100906.31;;;14.58;37.46
9415;BME280;4746;35.664;139.738;2023-12-29T01:28:03;100896.06;;;14.71;37.00
9415;BME280;4746;35.664;139.738;2023-12-29T01:30:30;100895.22;;;14.86;36.95
9415;BME280;4746;35.664;139.738;2023-12-29T01:33:00;100896.09;;;15.01;36.71
9415;BME280;4746;35.664;139.738;2023-12-29T01:35:27;100893.50;;;15.07;36.21
9415;BME280;4746;35.664;139.738;2023-12-29T01:37:55;100882.28;;;15.20;36.20
9415;BME280;4746;35.664;139.738;2023-12-29T01:40:24;100882.31;;;15.35;36.43
9415;BME280;4746;35.664;139.738;2023-12-29T01:42:51;100885.72;;;15.41;35.36
9415;BME280;4746;35.664;139.738;2023-12-29T01:45:24;100879.66;;;15.51;35.26
9415;BME280;4746;35.664;139.738;2023-12-29T01:47:53;100871.91;;;15.57;34.96
9415;BME280;4746;35.664;139.738;2023-12-29T01:50:22;100882.22;;;15.63;34.90
9415;BME280;4746;35.664;139.738;2023-12-29T01:52:52;100864.13;;;15.69;34.79
9415;BME280;4746;35.664;139.738;2023-12-29T01:55:24;100862.41;;;15.71;34.44
9415;BME280;4746;35.664;139.738;2023-12-29T01:57:53;100858.13;;;15.72;34.75
9415;BME280;4746;35.664;139.738;2023-12-29T02:00:21;100848.66;;;15.71;34.59
9415;BME280;4746;35.664;139.738;2023-12-29T02:02:50;100840.00;;;15.75;33.99
9415;BME280;4746;35.664;139.738;2023-12-29T02:05:20;100833.06;;;15.81;34.18
9415;BME280;4746;35.664;139.738;2023-12-29T02:07:51;100835.63;;;15.87;33.90
9415;BME280;4746;35.664;139.738;2023-12-29T02:10:20;100825.28;;;15.93;33.83
9415;BME280;4746;35.664;139.738;2023-12-29T02:12:49;100828.66;;;16.02;33.91
9415;BME280;4746;35.664;139.738;2023-12-29T02:15:18;100825.19;;;16.12;33.67
9415;BME280;4746;35.664;139.738;2023-12-29T02:17:56;100822.50;;;16.30;34.06
9415;BME280;4746;35.664;139.738;2023-12-29T02:20:27;100819.84;;;16.41;33.81
9415;BME280;4746;35.664;139.738;2023-12-29T02:22:55;100820.63;;;16.55;33.25
9415;BME280;4746;35.664;139.738;2023-12-29T02:25:23;100816.09;;;16.79;33.50
9415;BME280;4746;35.664;139.738;2023-12-29T02:27:59;100816.78;;;17.00;32.97
9415;BME280;4746;35.664;139.738;2023-12-29T02:30:37;100802.75;;;17.24;32.86
9415;BME280;4746;35.664;139.738;2023-12-29T02:33:10;100805.13;;;17.44;32.37
9415;BME280;4746;35.664;139.738;2023-12-29T02:35:44;100804.00;;;17.66;32.09
9415;BME280;4746;35.664;139.738;2023-12-29T02:38:13;100796.06;;;17.78;31.81
9415;BME280;4746;35.664;139.738;2023-12-29T02:40:41;100791.66;;;17.86;31.68
9415;BME280;4746;35.664;139.738;2023-12-29T02:43:11;100795.75;;;18.02;31.26
9415;BME280;4746;35.664;139.738;2023-12-29T02:45:38;100791.38;;;18.06;31.18
9415;BME280;4746;35.664;139.738;2023-12-29T02:48:07;100790.25;;;18.26;31.33
9415;BME280;4746;35.664;139.738;2023-12-29T02:50:35;100783.75;;;18.55;30.87
9415;BME280;4746;35.664;139.738;2023-12-29T02:53:03;100780.81;;;18.75;30.36
9415;BME280;4746;35.664;139.738;2023-12-29T02:55:33;100781.47;;;18.85;30.14
9415;BME280;4746;35.664;139.738;2023-12-29T02:58:03;100778.56;;;19.03;30.09
9415;BME280;4746;35.664;139.738;2023-12-29T03:00:31;100775.00;;;19.09;29.87
9415;BME280;4746;35.664;139.738;2023-12-29T03:02:58;100767.91;;;19.18;29.61
9415;BME280;4746;35.664;139.738;2023-12-29T03:05:28;100766.72;;;19.34;29.38
9415;BME280;4746;35.664;139.738;2023-12-29T03:07:56;100756.88;;;19.50;29.37
9415;BME280;4746;35.664;139.738;2023-12-29T03:10:24;100754.81;;;19.65;29.23
9415;BME280;4746;35.664;139.738;2023-12-29T03:12:51;100751.03;;;19.81;29.00
9415;BME280;4746;35.664;139.738;2023-12-29T03:15:19;100746.28;;;19.99;28.87
9415;BME280;4746;35.664;139.738;2023-12-29T03:17:46;100741.03;;;20.38;28.91
9415;BME280;4746;35.664;139.738;2023-12-29T03:20:14;100741.50;;;21.19;27.84
9415;BME280;4746;35.664;139.738;2023-12-29T03:22:41;100736.16;;;22.11;26.51
9415;BME280;4746;35.664;139.738;2023-12-29T03:25:10;100737.50;;;22.76;26.26
9415;BME280;4746;35.664;139.738;2023-12-29T03:27:38;100738.97;;;23.08;25.27
9415;BME280;4746;35.664;139.738;2023-12-29T03:30:06;100721.63;;;23.30;25.21
9415;BME280;4746;35.664;139.738;2023-12-29T03:32:33;100727.19;;;23.44;24.33
9415;BME280;4746;35.664;139.738;2023-12-29T03:35:01;100716.94;;;23.61;24.21
9415;BME280;4746;35.664;139.738;2023-12-29T03:37:28;100723.31;;;24.00;24.32
9415;BME280;4746;35.664;139.738;2023-12-29T03:39:56;100726.91;;;24.19;23.93
9415;BME280;4746;35.664;139.738;2023-12-29T03:42:23;100714.34;;;23.84;23.97
9415;BME280;4746;35.664;139.738;2023-12-29T03:44:51;100726.22;;;23.47;23.98
9415;BME280;4746;35.664;139.738;2023-12-29T03:47:18;100715.13;;;23.63;23.70
9415;BME280;4746;35.664;139.738;2023-12-29T03:49:46;100711.13;;;25.59;21.90
9415;BME280;4746;35.664;139.738;2023-12-29T03:52:13;100710.38;;;27.31;20.27
9415;BME280;4746;35.664;139.738;2023-12-29T03:54:41;100707.94;;;29.09;19.03
9415;BME280;4746;35.664;139.738;2023-12-29T03:57:08;100704.00;;;30.38;18.63
9415;BME280;4746;35.664;139.738;2023-12-29T03:59:39;100704.13;;;31.63;17.63
9415;BME280;4746;35.664;139.738;2023-12-29T04:02:06;100692.72;;;32.79;16.90
9415;BME280;4746;35.664;139.738;2023-12-29T04:04:37;100698.13;;;33.44;15.99
9415;BME280;4746;35.664;139.738;2023-12-29T04:07:05;100693.75;;;33.98;15.07
9415;BME280;4746;35.664;139.738;2023-12-29T04:09:33;100690.03;;;34.32;14.96
9415;BME280;4746;35.664;139.738;2023-12-29T04:12:00;100685.50;;;34.54;14.88
9415;BME280;4746;35.664;139.738;2023-12-29T04:14:28;100683.50;;;35.08;14.59
9415;BME280;4746;35.664;139.738;2023-12-29T04:16:55;100689.28;;;35.82;14.18
9415;BME280;4746;35.664;139.738;2023-12-29T04:19:23;100676.44;;;36.24;13.57
9415;BME280;4746;35.664;139.738;2023-12-29T04:21:50;100681.09;;;36.60;13.32
9415;BME280;4746;35.664;139.738;2023-12-29T04:24:18;100681.47;;;37.03;12.54
9415;BME280;4746;35.664;139.738;2023-12-29T04:26:46;100683.63;;;37.36;12.60
9415;BME280;4746;35.664;139.738;2023-12-29T04:29:13;100676.53;;;37.80;12.16
9415;BME280;4746;35.664;139.738;2023-12-29T04:31:42;100671.31;;;38.23;12.35
9415;BME280;4746;35.664;139.738;2023-12-29T04:34:10;100675.28;;;38.54;11.66
9415;BME280;4746;35.664;139.738;2023-12-29T04:36:37;100678.53;;;38.83;11.59
9415;BME280;4746;35.664;139.738;2023-12-29T04:39:07;100678.25;;;38.86;11.17
9415;BME280;4746;35.664;139.738;2023-12-29T04:41:37;100682.38;;;38.80;11.21
9415;BME280;4746;35.664;139.738;2023-12-29T04:44:05;100678.88;;;38.80;11.47
9415;BME280;4746;35.664;139.738;2023-12-29T04:46:33;100680.16;;;39.01;10.70
9415;BME280;4746;35.664;139.738;2023-12-29T04:49:01;100676.38;;;39.29;11.03
9415;BME280;4746;35.664;139.738;2023-12-29T04:51:28;100680.69;;;39.22;11.00
9415;BME280;4746;35.664;139.738;2023-12-29T04:53:56;100680.91;;;39.03;10.86
9415;BME280;4746;35.664;139.738;2023-12-29T04:56:23;100677.06;;;39.05;10.85
9415;BME280;4746;35.664;139.738;2023-12-29T04:58:52;100681.91;;;39.35;10.74
9415;BME280;4746;35.664;139.738;2023-12-29T05:01:21;100679.47;;;39.83;10.31
9415;BME280;4746;35.664;139.738;2023-12-29T05:03:49;100676.69;;;39.59;10.16
9415;BME280;4746;35.664;139.738;2023-12-29T05:06:16;100677.69;;;39.58;10.31
9415;BME280;4746;35.664;139.738;2023-12-29T05:08:44;100677.75;;;39.82;10.18
9415;BME280;4746;35.664;139.738;2023-12-29T05:11:11;100670.16;;;40.19;10.20
9415;BME280;4746;35.664;139.738;2023-12-29T05:13:39;100679.97;;;40.44;9.80
9415;BME280;4746;35.664;139.738;2023-12-29T05:16:06;100685.16;;;40.85;10.03
9415;BME280;4746;35.664;139.738;2023-12-29T05:18:36;100682.38;;;41.40;9.66
9415;BME280;4746;35.664;139.738;2023-12-29T05:21:05;100690.03;;;41.67;9.65
9415;BME280;4746;35.664;139.738;2023-12-29T05:23:32;100678.63;;;42.18;9.36
9415;BME280;4746;35.664;139.738;2023-12-29T05:26:00;100688.13;;;42.36;9.28
9415;BME280;4746;35.664;139.738;2023-12-29T05:28:27;100681.84;;;41.83;9.35
9415;BME280;4746;35.664;139.738;2023-12-29T05:30:55;100680.06;;;41.68;9.20
9415;BME280;4746;35.664;139.738;2023-12-29T05:33:22;100682.03;;;41.51;9.53
9415;BME280;4746;35.664;139.738;2023-12-29T05:35:50;100675.34;;;41.70;9.08
9415;BME280;4746;35.664;139.738;2023-12-29T05:38:18;100675.59;;;41.91;8.87
9415;BME280;4746;35.664;139.738;2023-12-29T05:40:45;100671.97;;;42.36;8.87
9415;BME280;4746;35.664;139.738;2023-12-29T05:43:14;100663.41;;;42.69;8.67
9415;BME280;4746;35.664;139.738;2023-12-29T05:45:42;100668.28;;;42.88;8.47
9415;BME280;4746;35.664;139.738;2023-12-29T05:48:10;100666.38;;;43.11;8.78
9415;BME280;4746;35.664;139.738;2023-12-29T05:50:38;100671.59;;;43.42;8.57
9415;BME280;4746;35.664;139.738;2023-12-29T05:53:05;100661.44;;;43.58;8.14
9415;BME280;4746;35.664;139.738;2023-12-29T05:55:35;100668.91;;;43.56;8.57
9415;BME280;4746;35.664;139.738;2023-12-29T05:58:03;100683.44;;;43.41;8.52
9415;BME280;4746;35.664;139.738;2023-12-29T06:00:31;100681.28;;;43.36;8.28
9415;BME280;4746;35.664;139.738;2023-12-29T06:02:58;100681.28;;;43.22;8.39
9415;BME280;4746;35.664;139.738;2023-12-29T06:05:26;100690.50;;;42.76;8.18
9415;BME280;4746;35.664;139.738;2023-12-29T06:07:53;100701.66;;;42.28;8.64
9415;BME280;4746;35.664;139.738;2023-12-29T06:10:21;100704.22;;;41.45;9.08
9415;BME280;4746;35.664;139.738;2023-12-29T06:12:49;100709.00;;;41.20;8.84
9415;BME280;4746;35.664;139.738;2023-12-29T06:15:17;100716.75;;;40.99;9.35
9415;BME280;4746;35.664;139.738;2023-12-29T06:17:44;100718.78;;;40.89;9.40
9415;BME280;4746;35.664;139.738;2023-12-29T06:20:12;100712.88;;;41.01;9.16
9415;BME280;4746;35.664;139.738;2023-12-29T06:22:42;100718.59;;;40.98;9.60
9415;BME280;4746;35.664;139.738;2023-12-29T06:25:14;100723.78;;;41.00;9.49
9415;BME280;4746;35.664;139.738;2023-12-29T06:27:42;100724.34;;;40.95;9.36
9415;BME280;4746;35.664;139.738;2023-12-29T06:30:10;100718.63;;;41.14;9.54
9415;BME280;4746;35.664;139.738;2023-12-29T06:32:38;100729.03;;;41.17;9.26
9415;BME280;4746;35.664;139.738;2023-12-29T06:35:07;100716.63;;;41.08;9.46
9415;BME280;4746;35.664;139.738;2023-12-29T06:37:41;100718.41;;;41.08;9.46
9415;BME280;4746;35.664;139.738;2023-12-29T06:40:09;100721.47;;;40.97;9.52
9415;BME280;4746;35.664;139.738;2023-12-29T06:42:37;100715.25;;;40.80;9.82
9415;BME280;4746;35.664;139.738;2023-12-29T06:45:06;100723.47;;;40.55;9.62
9415;BME280;4746;35.664;139.738;2023-12-29T06:47:35;100726.53;;;39.95;10.14
9415;BME280;4746;35.664;139.738;2023-12-29T06:50:03;100722.38;;;39.16;10.62
9415;BME280;4746;35.664;139.738;2023-12-29T06:52:31;100725.91;;;38.39;10.26
9415;BME280;4746;35.664;139.738;2023-12-29T06:55:04;100733.97;;;37.86;10.83
9415;BME280;4746;35.664;139.738;2023-12-29T06:57:32;100733.22;;;37.30;11.27
9415;BME280;4746;35.664;139.738;2023-12-29T07:00:00;100732.44;;;36.54;11.79
9415;BME280;4746;35.664;139.738;2023-12-29T07:02:27;100731.69;;;35.85;11.83
9415;BME280;4746;35.664;139.738;2023-12-29T07:04:55;100735.41;;;35.13;12.58
9415;BME280;4746;35.664;139.738;2023-12-29T07:07:22;100741.75;;;34.50;12.76
9415;BME280;4746;35.664;139.738;2023-12-29T07:09:50;100749.41;;;33.79;13.02
9415;BME280;4746;35.664;139.738;2023-12-29T07:12:18;100748.03;;;33.19;13.65
9415;BME280;4746;35.664;139.738;2023-12-29T07:14:45;100743.97;;;32.45;14.67
9415;BME280;4746;35.664;139.738;2023-12-29T07:17:13;100750.16;;;31.62;14.64
9415;BME280;4746;35.664;139.738;2023-12-29T07:19:40;100747.53;;;30.73;15.49
9415;BME280;4746;35.664;139.738;2023-12-29T07:22:08;100760.06;;;29.91;15.77
9415;BME280;4746;35.664;139.738;2023-12-29T07:24:36;100753.25;;;29.02;16.79
9415;BME280;4746;35.664;139.738;2023-12-29T07:27:04;100760.28;;;28.12;17.22
9415;BME280;4746;35.664;139.738;2023-12-29T07:29:32;100754.84;;;27.20;18.22
9415;BME280;4746;35.664;139.738;2023-12-29T07:32:00;100755.38;;;26.23;18.80
9415;BME280;4746;35.664;139.738;2023-12-29T07:34:27;100754.03;;;25.40;19.65
9415;BME280;4746;35.664;139.738;2023-12-29T07:36:58;100755.47;;;24.67;20.42
9415;BME280;4746;35.664;139.738;2023-12-29T07:39:26;100753.69;;;24.04;21.23
9415;BME280;4746;35.664;139.738;2023-12-29T07:41:55;100761.94;;;23.48;22.18
9415;BME280;4746;35.664;139.738;2023-12-29T07:44:24;100764.59;;;22.98;22.85
9415;BME280;4746;35.664;139.738;2023-12-29T07:46:51;100769.66;;;22.52;23.10
9415;BME280;4746;35.664;139.738;2023-12-29T07:49:19;100768.38;;;22.10;23.68
9415;BME280;4746;35.664;139.738;2023-12-29T07:51:47;100775.56;;;21.75;24.18
9415;BME280;4746;35.664;139.738;2023-12-29T07:54:15;100768.75;;;21.39;24.50
9415;BME280;4746;35.664;139.738;2023-12-29T07:56:42;100771.28;;;21.10;24.91
9415;BME280;4746;35.664;139.738;2023-12-29T07:59:10;100781.56;;;20.83;25.30
9415;BME280;4746;35.664;139.738;2023-12-29T08:01:37;100781.25;;;20.60;25.63
9415;BME280;4746;35.664;139.738;2023-12-29T08:04:06;100782.66;;;20.38;25.98
9415;BME280;4746;35.664;139.738;2023-12-29T08:06:33;100779.75;;;20.16;26.18
9415;BME280;4746;35.664;139.738;2023-12-29T08:09:04;100787.97;;;19.96;26.35
9415;BME280;4746;35.664;139.738;2023-12-29T08:11:32;100787.47;;;19.78;26.71
9415;BME280;4746;35.664;139.738;2023-12-29T08:13:59;100780.91;;;19.62;26.77
9415;BME280;4746;35.664;139.738;2023-12-29T08:16:27;100791.59;;;19.47;27.02
9415;BME280;4746;35.664;139.738;2023-12-29T08:18:54;100792.75;;;19.33;26.84
9415;BME280;4746;35.664;139.738;2023-12-29T08:21:25;100796.47;;;19.18;27.11
9415;BME280;4746;35.664;139.738;2023-12-29T08:23:54;100801.91;;;19.05;27.28
9415;BME280;4746;35.664;139.738;2023-12-29T08:26:21;100801.28;;;18.92;27.36
9415;BME280;4746;35.664;139.738;2023-12-29T08:28:49;100803.16;;;18.81;27.61
9415;BME280;4746;35.664;139.738;2023-12-29T08:31:19;100801.59;;;18.72;27.83
9415;BME280;4746;35.664;139.738;2023-12-29T08:33:46;100798.34;;;18.61;28.31
9415;BME280;4746;35.664;139.738;2023-12-29T08:36:17;100802.78;;;18.53;28.39
9415;BME280;4746;35.664;139.738;2023-12-29T08:38:45;100805.53;;;18.44;28.38
9415;BME280;4746;35.664;139.738;2023-12-29T08:41:14;100807.34;;;18.39;28.51
9415;BME280;4746;35.664;139.738;2023-12-29T08:43:42;100801.41;;;18.31;28.71
9415;BME280;4746;35.664;139.738;2023-12-29T08:46:09;100809.31;;;18.23;28.33
9415;BME280;4746;35.664;139.738;2023-12-29T08:48:37;100817.16;;;18.16;28.46
9415;BME280;4746;35.664;139.738;2023-12-29T08:51:04;100816.38;;;18.11;27.94
9415;BME280;4746;35.664;139.738;2023-12-29T08:53:33;100821.66;;;18.05;28.44
9415;BME280;4746;35.664;139.738;2023-12-29T08:56:03;100825.13;;;18.01;28.74
9415;BME280;4746;35.664;139.738;2023-12-29T08:58:31;100832.13;;;17.96;28.64
9415;BME280;4746;35.664;139.738;2023-12-29T09:00:58;100827.88;;;17.92;28.46
9415;BME280;4746;35.664;139.738;2023-12-29T09:03:26;100823.59;;;17.87;28.75
9415;BME280;4746;35.664;139.738;2023-12-29T09:05:54;100828.84;;;17.82;28.82
9415;BME280;4746;35.664;139.738;2023-12-29T09:08:23;100828.03;;;17.79;29.00
9415;BME280;4746;35.664;139.738;2023-12-29T09:10:51;100821.16;;;17.75;28.85
9415;BME280;4746;35.664;139.738;2023-12-29T09:13:18;100829.00;;;17.70;29.13
9415;BME280;4746;35.664;139.738;2023-12-29T09:15:50;100834.22;;;17.67;28.91
9415;BME280;4746;35.664;139.738;2023-12-29T09:18:17;100838.59;;;17.62;29.16
9415;BME280;4746;35.664;139.738;2023-12-29T09:20:45;100834.34;;;17.58;29.23
9415;BME280;4746;35.664;139.738;2023-12-29T09:23:12;100835.22;;;17.54;29.22
9415;BME280;4746;35.664;139.738;2023-12-29T09:25:41;100832.69;;;17.51;29.12
9415;BME280;4746;35.664;139.738;2023-12-29T09:28:08;100842.22;;;17.48;28.87
9415;BME280;4746;35.664;139.738;2023-12-29T09:30:37;100844.84;;;17.46;29.30
9415;BME280;4746;35.664;139.738;2023-12-29T09:33:05;100850.94;;;17.41;28.97
9415;BME280;4746;35.664;139.738;2023-12-29T09:35:32;100856.16;;;17.37;29.56
9415;BME280;4746;35.664;139.738;2023-12-29T09:38:00;100864.78;;;17.36;29.48
9415;BME280;4746;35.664;139.738;2023-12-29T09:40:28;100861.41;;;17.32;29.52
9415;BME280;4746;35.664;139.738;2023-12-29T09:42:56;100865.72;;;17.30;29.67
9415;BME280;4746;35.664;139.738;2023-12-29T09:45:24;100871.81;;;17.26;29.64
9415;BME280;4746;35.664;139.738;2023-12-29T09:47:55;100878.69;;;17.24;29.32
9415;BME280;4746;35.664;139.738;2023-12-29T09:50:26;100876.97;;;17.23;29.33
9415;BME280;4746;35.664;139.738;2023-12-29T09:52:55;100873.53;;;17.21;29.84
9415;BME280;4746;35.664;139.738;2023-12-29T09:55:24;100881.38;;;17.17;29.51
9415;BME280;4746;35.664;139.738;2023-12-29T09:57:52;100879.66;;;17.13;29.62
9415;BME280;4746;35.664;139.738;2023-12-29T10:00:21;100884.88;;;17.10;29.40
9415;BME280;4746;35.664;139.738;2023-12-29T10:02:52;100871.94;;;17.07;29.82
9415;BME280;4746;35.664;139.738;2023-12-29T10:05:24;100871.13;;;17.05;29.64
9415;BME280;4746;35.664;139.738;2023-12-29T10:07:53;100872.00;;;17.01;29.83
9415;BME280;4746;35.664;139.738;2023-12-29T10:10:21;100881.53;;;16.99;29.53
9415;BME280;4746;35.664;139.738;2023-12-29T10:12:52;100883.25;;;16.97;29.78
9415;BME280;4746;35.664;139.738;2023-12-29T10:21:11;100884.19;;;16.88;30.28
9415;BME280;4746;35.664;139.738;2023-12-29T10:23:54;100881.66;;;16.81;30.37
9415;BME280;4746;35.664;139.738;2023-12-29T10:26:26;100874.81;;;16.74;30.63
9415;BME280;4746;35.664;139.738;2023-12-29T10:28:55;100875.72;;;16.70;30.84
9415;BME280;4746;35.664;139.738;2023-12-29T10:31:24;100886.09;;;16.64;30.92
9415;BME280;4746;35.664;139.738;2023-12-29T10:33:52;100880.09;;;16.58;31.48
9415;BME280;4746;35.664;139.738;2023-12-29T10:36:52;100878.38;;;16.55;31.20
9415;BME280;4746;35.664;139.738;2023-12-29T10:39:19;100890.53;;;16.47;31.37
9415;BME280;4746;35.664;139.738;2023-12-29T10:41:47;100889.66;;;16.42;31.77
9415;BME280;4746;35.664;139.738;2023-12-29T10:44:15;100885.41;;;16.38;31.94
9415;BME280;4746;35.664;139.738;2023-12-29T10:46:43;100887.13;;;16.36;31.90
9415;BME280;4746;35.664;139.738;2023-12-29T10:49:13;100885.44;;;16.35;32.35
9415;BME280;4746;35.664;139.738;2023-12-29T10:51:41;100890.59;;;16.32;31.84
9415;BME280;4746;35.664;139.738;2023-12-29T10:54:19;100875.94;;;16.34;32.24
9415;BME280;4746;35.664;139.738;2023-12-29T10:57:03;100885.44;;;16.35;32.29
9415;BME280;4746;35.664;139.738;2023-12-29T10:59:31;100878.53;;;16.31;32.71
9415;BME280;4746;35.664;139.738;2023-12-29T11:02:02;100879.41;;;16.32;32.71
9415;BME280;4746;35.664;139.738;2023-12-29T11:04:35;100882.84;;;16.28;33.00
9415;BME280;4746;35.664;139.738;2023-12-29T11:07:03;100871.66;;;16.27;33.07
9415;BME280;4746;35.664;139.738;2023-12-29T11:09:32;100882.00;;;16.27;33.03
9415;BME280;4746;35.664;139.738;2023-12-29T11:12:04;100884.56;;;16.26;33.32
9415;BME280;4746;35.664;139.738;2023-12-29T11:14:33;100885.47;;;16.23;33.55
9415;BME280;4746;35.664;139.738;2023-12-29T11:17:01;100888.91;;;16.22;33.81
9415;BME280;4746;35.664;139.738;2023-12-29T11:19:32;100895.81;;;16.20;34.00
9415;BME280;4746;35.664;139.738;2023-12-29T11:22:01;100896.66;;;16.19;33.98
9415;BME280;4746;35.664;139.738;2023-12-29T11:24:30;100898.41;;;16.19;33.68
9415;BME280;4746;35.664;139.738;2023-12-29T11:26:57;100894.09;;;16.16;33.85
9415;BME280;4746;35.664;139.738;2023-12-29T11:29:25;100899.28;;;16.16;34.05
9415;BME280;4746;35.664;139.738;2023-12-29T11:31:55;100897.56;;;16.15;33.76
9415;BME280;4746;35.664;139.738;2023-12-29T11:34:44;100908.75;;;16.17;33.96
9415;BME280;4746;35.664;139.738;2023-12-29T11:37:33;100907.91;;;16.14;33.82
9415;BME280;4746;35.664;139.738;2023-12-29T11:40:50;100893.25;;;16.13;33.89
9415;BME280;4746;35.664;139.738;2023-12-29T11:43:20;100893.28;;;16.04;34.35
9415;BME280;4746;35.664;139.738;2023-12-29T11:45:47;100897.59;;;16.03;34.22
9415;BME280;4746;35.664;139.738;2023-12-29T11:48:53;100895.84;;;16.08;33.82
9415;BME280;4746;35.664;139.738;2023-12-29T11:54:05;100909.69;;;15.98;34.71
9415;BME280;4746;35.664;139.738;2023-12-29T11:56:39;100912.28;;;15.98;34.73
9415;BME280;4746;35.664;139.738;2023-12-29T11:59:25;100911.41;;;15.99;34.81
9415;BME280;4746;35.664;139.738;2023-12-29T12:01:59;100912.28;;;15.96;34.92
9415;BME280;4746;35.664;139.738;2023-12-29T12:04:44;100913.16;;;15.95;35.33
9415;BME280;4746;35.664;139.738;2023-12-29T12:12:50;100926.09;;;15.84;35.34
9415;BME280;4746;35.664;139.738;2023-12-29T12:17:58;100931.28;;;15.83;35.44
9415;BME280;4746;35.664;139.738;2023-12-29T12:20:27;100925.25;;;15.81;35.45
9415;BME280;4746;35.664;139.738;2023-12-29T12:23:19;100935.56;;;15.84;35.60
9415;BME280;4746;35.664;139.738;2023-12-29T12:25:47;100929.56;;;15.77;35.67
9415;BME280;4746;35.664;139.738;2023-12-29T12:28:17;100939.91;;;15.76;35.75
9415;BME280;4746;35.664;139.738;2023-12-29T12:30:45;100934.75;;;15.76;35.90
9415;BME280;4746;35.664;139.738;2023-12-29T12:33:14;100947.66;;;15.76;35.69
9415;BME280;4746;35.664;139.738;2023-12-29T12:35:41;100937.34;;;15.76;35.98
9415;BME280;4746;35.664;139.738;2023-12-29T12:38:15;100939.91;;;15.77;35.68
9415;BME280;4746;35.664;139.738;2023-12-29T12:40:49;100929.59;;;15.74;35.70
9415;BME280;4746;35.664;139.738;2023-12-29T12:43:18;100939.03;;;15.74;35.84
9415;BME280;4746;35.664;139.738;2023-12-29T12:46:02;100940.75;;;15.78;35.55
9415;BME280;4746;35.664;139.738;2023-12-29T12:48:42;100940.78;;;15.75;35.59
9415;BME280;4746;35.664;139.738;2023-12-29T12:51:12;100935.63;;;15.72;35.84
9415;BME280;4746;35.664;139.738;2023-12-29T12:53:41;100927.88;;;15.69;35.68
9415;BME280;4746;35.664;139.738;2023-12-29T12:56:11;100932.16;;;15.67;35.93
9415;BME280;4746;35.664;139.738;2023-12-29T12:58:39;100930.47;;;15.66;35.73
9415;BME280;4746;35.664;139.738;2023-12-29T13:01:08;100934.78;;;15.64;35.83
9415;BME280;4746;35.664;139.738;2023-12-29T13:03:38;100933.91;;;15.65;35.64
9415;BME280;4746;35.664;139.738;2023-12-29T13:06:07;100923.59;;;15.60;35.30
9415;BME280;4746;35.664;139.738;2023-12-29T13:08:35;100924.44;;;15.59;35.57
9415;BME280;4746;35.664;139.738;2023-12-29T13:11:03;100914.97;;;15.57;35.29
9415;BME280;4746;35.664;139.738;2023-12-29T13:13:42;100912.41;;;15.57;35.33
9415;BME280;4746;35.664;139.738;2023-12-29T13:16:10;100912.41;;;15.51;35.41
9415;BME280;4746;35.664;139.738;2023-12-29T13:18:38;100907.25;;;15.46;35.78